# Land Stadt Wetter Temperatur Luftdruck Luftfeuchtigkeit Sichtweite Windgeschwindigkeit Windrichtung Ortszeit
1 ad Andorra la Vella Clouds 20 1013 94 4258 13 9 02.08.2018 14:22
2 ae Dubai Haze 39 995 63 4500 19 310 02.08.2018 14:21
3 af Kabul Clear 34 1000 20 10000 16 341 02.08.2018 14:21
4 ar Buenos Aires Clouds 10 1025 81 9000 18 180 02.08.2018 14:22
5 ar Esquel Clouds 6 1014 61 10000 2 329 02.08.2018 14:22
6 ar Ushuaia Drizzle 5 980 56 10000 37 240 02.08.2018 14:22
7 at Innsbruck Clouds 21 1019 82 10000 4 0 02.08.2018 14:23
8 at Wien Clear 26 1016 51 10000 14 42 02.08.2018 14:22
9 au Alice Springs Clear 18 1024 25 10000 26 70 02.08.2018 14:21
10 au Darwin Clear 29 1015 19 10000 24 90 02.08.2018 14:22
11 au Perth Clouds 16 1023 77 10000 22 300 02.08.2018 14:21
12 au Sydney Clear 16 1004 40 10000 56 290 02.08.2018 14:22
13 bg Sofia Clouds 35 1007 26 10000 11 0 02.08.2018 14:21
14 bg Warna Clouds 26 1012 65 10000 9 330 02.08.2018 14:21
15 bo La Paz Clouds 6 1022 76 10000 15 70 02.08.2018 14:22
16 bo Potisi Clear 1 1021 30 10000 0 0 02.08.2018 14:22
17 br Manaus Clouds 33 1010 49 10000 17 110 02.08.2018 14:21
18 br Rio de Janeiro Clouds 20 1027 85 10000 7 220 02.08.2018 14:22
19 bs Nassau Clouds 25 1017 88 1200 24 150 02.08.2018 14:22
20 ca Montreal Clear 19 1018 79 10000 11 240 02.08.2018 14:22
21 cd Kisangani Clouds 22 1012 97 10000 2 327 02.08.2018 14:23
22 ch Andermatt Clouds 12 1018 90 10000 10 318 02.08.2018 14:23
23 ch Bern Clear 17 1015 84 10000 4 0 02.08.2018 14:23
24 ck Avarua Clouds 23 1020 60 10000 11 120 02.08.2018 14:22
25 cl Santiago Clouds 11 1017 85 10000 4 224 02.08.2018 14:23
26 cn Lhasa Rain 15 1005 85 10000 8 208 02.08.2018 14:22
27 cn Peking Clouds 33 998 44 10000 16 331 02.08.2018 14:23
28 cn Shanghai Clear 33 1007 78 10000 18 210 02.08.2018 14:21
29 de Berlin Clear 20 1010 93 10000 13 240 02.08.2018 14:21
30 de Braunschweig Clear 30 1010 43 10000 9 60 02.08.2018 14:21
31 de Bremen Clear 20 1006 81 10000 6 90 02.08.2018 14:22
32 de Dresden Clear 20 1014 63 10000 6 90 02.08.2018 14:22
33 de Emden Clouds 19 1014 90 10000 18 219 02.08.2018 14:21
34 de Flensburg Clear 19 1019 72 10000 15 120 02.08.2018 14:21
35 de Frankfurt Clear 22 1007 80 10000 11 50 02.08.2018 14:22
36 de Freiburg Clouds 22 1008 80 10000 5 149 02.08.2018 14:22
37 de Hamburg Clear 27 1020 50 10000 9 300 02.08.2018 14:21
38 de Hannover Clear 27 1019 44 10000 6 0 02.08.2018 14:21
39 de Helgoland Clouds 19 1021 80 10000 13 69 02.08.2018 14:22
40 de Hiddensee Clouds 20 1014 69 10000 18 67 02.08.2018 14:21
41 de Kassel Clear 28 1019 44 10000 13 100 02.08.2018 14:21
42 de Köln Clouds 18 1016 82 10000 9 330 02.08.2018 14:21
43 de Magdeburg Clear 15 1022 88 10000 4 108 02.08.2018 14:22
44 de München Clouds 29 1017 51 10000 3 104 02.08.2018 14:21
45 de Nürnberg Clear 29 1017 42 10000 11 350 02.08.2018 14:21
46 de Oberstdorf Clouds 18 1016 78 10000 7 190 02.08.2018 14:21
47 de Stuttgart Clear 20 1007 85 10000 2 0 02.08.2018 14:22
48 de Torfhaus Clouds 24 1019 49 10000 1 195 02.08.2018 14:22
49 de Trier Clouds 19 1019 72 10000 12 198 02.08.2018 14:21
50 do Santo Domingo Rain 28 1016 84 8000 8 351 02.08.2018 14:21
51 ec San Cristobal Clouds 22 1016 82 10000 17 149 02.08.2018 14:22
52 eg Kairo Clear 36 1003 26 10000 13 340 02.08.2018 14:22
53 es Barcelona Clouds 25 1006 75 10000 7 340 02.08.2018 14:22
54 es Las Palmas de Gran Canaria Clouds 22 1017 89 8653 22 340 02.08.2018 14:21
55 es Madrid Clear 24 1020 23 10000 15 40 02.08.2018 14:23
56 es Palma de Mallorca Clear 31 1018 35 10000 20 230 02.08.2018 14:22
57 es Sevilla Clear 26 1013 58 10000 20 230 02.08.2018 14:22
58 es Tarifa Clear 32 1013 60 10000 21 255 02.08.2018 14:21
59 et Addis Abeba Clouds 15 1017 100 7000 11 240 02.08.2018 14:23
60 fi Helsinki Rain 19 1011 84 10000 24 258 02.08.2018 14:21
61 fi Rovaniemi Clear 23 1016 43 10000 7 150 02.08.2018 14:21
62 fj Suva Clouds 28 1016 74 10000 9 30 02.08.2018 14:21
63 fr Bordeaux Clouds 29 1009 42 10000 15 300 02.08.2018 14:21
64 fr Nizza Clear 33 1010 48 10000 9 174 02.08.2018 14:22
65 fr Paris Clouds 20 1006 94 10000 13 120 02.08.2018 14:22
66 gb Glasgow Clouds 13 1017 87 10000 2 220 02.08.2018 14:21
67 gb London Clouds 17 1010 89 10000 10 232 02.08.2018 14:22
68 gb Manchester Clouds 16 1017 85 10000 4 0 02.08.2018 14:21
69 gl Nuuk Clear 6 1013 85 10000 9 318 02.08.2018 14:22
70 gr Athen Clear 32 1008 41 10000 4 0 02.08.2018 14:22
71 id Jakarta Haze 32 1012 71 5000 6 150 02.08.2018 14:22
72 ie Dublin Clouds 15 1018 96 10000 13 320 02.08.2018 14:21
73 in Jagatsukh Clouds 17 1011 91 10000 2 232 02.08.2018 14:22
74 in Mumbai Rain 25 1005 94 2100 22 230 02.08.2018 14:22
75 in Nagpur Thunderstorm 25 1000 100 1000 11 260 02.08.2018 14:21
76 iq Bagdad Clear 45 994 12 10000 26 280 02.08.2018 14:22
77 is Reykjavik Rain 13 1007 76 10000 6 0 02.08.2018 14:22
78 it Mailand Clear 24 1017 77 10000 5 68 02.08.2018 14:21
79 it Palermo Clear 32 1016 62 10000 13 42 02.08.2018 14:22
80 it Rom Clear 23 1009 39 10000 4 170 02.08.2018 14:23
81 jp Nagasaki Clouds 32 1010 70 10000 26 250 02.08.2018 14:21
82 jp Tokio Rain 31 1008 70 10000 24 190 02.08.2018 14:22
83 ke Nairobi Clouds 18 1018 81 10000 6 48 02.08.2018 14:22
84 kr Seoul Clouds 26 1008 83 10000 11 200 02.08.2018 14:21
85 ma Casablanca Clouds 23 1017 83 10000 6 20 02.08.2018 14:23
86 ma Marrakesch Clouds 27 1013 54 6000 7 250 02.08.2018 14:23
87 mg Antananarivo Clouds 21 1020 43 10000 6 0 02.08.2018 14:21
88 mn Ulaanbaatar Clouds 16 997 88 10000 0 0 02.08.2018 14:23
89 mn Uliastai Clouds 13 1002 75 10000 8 86 02.08.2018 14:23
90 mv Male Clouds 30 1009 79 10000 15 260 02.08.2018 14:23
91 mx Mexiko Stadt Rain 15 1020 93 8047 11 240 02.08.2018 14:21
92 mx Veracruz Clouds 24 1014 100 9656 2 182 02.08.2018 14:21
93 no Hammerfest Clouds 23 1011 35 10000 11 230 02.08.2018 14:22
94 no Oslo Clouds 26 1017 52 10000 7 212 02.08.2018 14:23
95 nz Wellington Clouds 13 999 76 10000 19 360 02.08.2018 14:23
96 pe Cusco Clear 10 1023 37 10000 4 0 02.08.2018 14:23
97 pg Port Moresby Haze 26 1013 73 10000 37 150 02.08.2018 14:21
98 ph Manila Clouds 30 1008 78 10000 7 290 02.08.2018 14:21
99 pt Lissabon Clouds 21 1016 68 10000 33 360 02.08.2018 14:22
100 qa Doha Clear 34 994 52 10000 7 340 02.08.2018 14:23
101 ru Amderma Clouds 6 1016 77 10000 17 270 02.08.2018 14:23
102 ru Anadyr Clear 14 1012 77 10000 11 180 02.08.2018 14:23
103 ru Jakutsk Clear 29 1002 32 10000 4 120 02.08.2018 14:22
104 ru Moskau Clouds 23 1013 70 10000 9 359 02.08.2018 14:22
105 ru Surgut Clear 14 1009 62 10000 11 30 02.08.2018 14:23
106 ru Werchojansk Clear 14 1003 46 10000 8 69 02.08.2018 14:22
107 sa Riad Clouds 38 1003 11 10000 12 358 02.08.2018 14:21
108 sb Honiara Clouds 25 1014 86 10000 9 145 02.08.2018 14:22
109 se Stockholm Clouds 23 1016 57 10000 20 290 02.08.2018 14:23
110 th Bangkok Clouds 31 1008 59 10000 18 245 02.08.2018 14:21
111 tr Alanya Clear 37 1002 20 10000 30 300 02.08.2018 14:22
112 tr Ankara Clear 20 1010 66 10000 0 0 02.08.2018 14:23
113 tr Istanbul Clear 26 1008 82 10000 20 60 02.08.2018 14:23
114 ua Kiew Clouds 30 1016 32 10000 18 342 02.08.2018 14:21
115 us Chicago Clouds 23 1019 59 10000 2 100 02.08.2018 14:23
116 us Death Valley Clear 35 1012 26 10000 2 341 02.08.2018 14:22
117 us Denver Clouds 22 1015 47 10000 4 199 02.08.2018 14:21
118 us Fairbanks Clouds 24 1013 60 10000 9 260 02.08.2018 14:23
119 us Honolulu Clouds 23 1018 75 10000 2 0 02.08.2018 14:22
120 us Las Vegas Clear 30 1011 36 10000 13 80 02.08.2018 14:21
121 us Los Angeles Clear 32 1014 54 10000 15 190 02.08.2018 14:22
122 us Miami Clouds 27 1015 88 10000 0 0 02.08.2018 14:23
123 us New York Clear 25 1020 63 10000 11 40 02.08.2018 14:22
124 us Nome Clear 14 1021 77 10000 6 310 02.08.2018 14:23
125 us Tucson Clouds 27 1013 55 10000 11 170 02.08.2018 14:21
126 uy Montevideo Fog 10 1022 100 100 0 0 02.08.2018 14:22
127 vn Hanoi Clouds 30 1006 78 10000 4 71 02.08.2018 14:21
128 za Kapstadt Clear 9 1023 86 10000 9 230 02.08.2018 14:22